Observation data for Snyder on 08/20/2019      Previous  Date       Current Mesonet Observations  Soil Data  Daily Summary Page  Observations in Plain Language
KSYS 200500Z 13010KT 30/15 A3003 RMK A01 T02980150  RH  042%=      5-min Rain = 0
KSYS 200505Z 13010KT 30/15 A3003 RMK A01 T02980150  RH  043%=      5-min Rain = 0
KSYS 200510Z 13010KT 30/15 A3004 RMK A01 T02960150  RH  043%=      5-min Rain = 0
KSYS 200515Z 13010KT 29/15 A3003 RMK A01 T02940151  RH  044%=      5-min Rain = 0
KSYS 200520Z 13010KT 29/15 A3004 RMK A01 T02940151  RH  044%=      5-min Rain = 0
KSYS 200525Z 13011KT 30/15 A3004 RMK A01 T02950152  RH  044%=      5-min Rain = 0
KSYS 200530Z 13011KT 29/15 A3004 RMK A01 T02940152  RH  044%=      5-min Rain = 0
KSYS 200535Z 13011KT 29/15 A3003 RMK A01 T02940152  RH  044%=      5-min Rain = 0
KSYS 200540Z 13010KT 30/15 A3003 RMK A01 T02950153  RH  044%=      5-min Rain = 0
KSYS 200545Z 13011KT 29/15 A3004 RMK A01 T02940153  RH  044%=      5-min Rain = 0
KSYS 200550Z 13012KT 29/15 A3004 RMK A01 T02940153  RH  044%=      5-min Rain = 0
KSYS 200555Z 13011KT 29/15 A3004 RMK A01 T02940153  RH  044%=      5-min Rain = 0
KSYS 200600Z 13011KT 29/15 A3004 RMK A01 T02930154  RH  045%=      5-min Rain = 0
KSYS 200605Z 13011KT 29/15 A3004 RMK A01 T02920154  RH  045%=      5-min Rain = 0
KSYS 200610Z 13011KT 29/16 A3004 RMK A01 T02910155  RH  046%=      5-min Rain = 0
KSYS 200615Z 13011KT 29/16 A3004 RMK A01 T02900155  RH  046%=      5-min Rain = 0
KSYS 200620Z 13011G16KT 29/16 A3004 RMK A01 T02890156  RH  046%=      5-min Rain = 0
KSYS 200625Z 14012KT 29/16 A3004 RMK A01 T02880156  RH  047%=      5-min Rain = 0
KSYS 200630Z 14012KT 29/16 A3004 RMK A01 T02880156  RH  047%=      5-min Rain = 0
KSYS 200635Z 14012KT 29/16 A3004 RMK A01 T02860156  RH  047%=      5-min Rain = 0
KSYS 200640Z 14011KT 29/16 A3004 RMK A01 T02850157  RH  048%=      5-min Rain = 0
KSYS 200645Z 14011KT 28/16 A3004 RMK A01 T02830157  RH  049%=      5-min Rain = 0
KSYS 200650Z 14011KT 28/16 A3004 RMK A01 T02820157  RH  049%=      5-min Rain = 0
KSYS 200655Z 15011KT 28/16 A3004 RMK A01 T02810156  RH  049%=      5-min Rain = 0
KSYS 200700Z 14012KT 28/16 A3004 RMK A01 T02810156  RH  049%=      5-min Rain = 0
KSYS 200705Z 15011KT 28/16 A3004 RMK A01 T02820155  RH  048%=      5-min Rain = 0
KSYS 200710Z 15011KT 28/15 A3004 RMK A01 T02830154  RH  048%=      5-min Rain = 0
KSYS 200715Z 15012KT 28/15 A3004 RMK A01 T02840154  RH  047%=      5-min Rain = 0
KSYS 200720Z 15012KT 28/15 A3004 RMK A01 T02840154  RH  047%=      5-min Rain = 0
KSYS 200725Z 15011G16KT 28/15 A3004 RMK A01 T02840154  RH  047%=      5-min Rain = 0
KSYS 200730Z 15011KT 28/16 A3004 RMK A01 T02830155  RH  048%=      5-min Rain = 0
KSYS 200735Z 15011KT 28/16 A3004 RMK A01 T02820155  RH  048%=      5-min Rain = 0
KSYS 200740Z 16011KT 28/16 A3004 RMK A01 T02810156  RH  049%=      5-min Rain = 0
KSYS 200745Z 16010KT 28/16 A3004 RMK A01 T02800156  RH  049%=      5-min Rain = 0
KSYS 200750Z 16009KT 28/16 A3004 RMK A01 T02780157  RH  050%=      5-min Rain = 0
KSYS 200755Z 16009KT 28/16 A3004 RMK A01 T02770157  RH  050%=      5-min Rain = 0
KSYS 200800Z 16009KT 28/16 A3004 RMK A01 T02750157  RH  051%=      5-min Rain = 0
KSYS 200805Z 16009KT 28/16 A3004 RMK A01 T02750157  RH  051%=      5-min Rain = 0
KSYS 200810Z 16008KT 27/16 A3004 RMK A01 T02730158  RH  051%=      5-min Rain = 0
KSYS 200815Z 17008KT 27/16 A3004 RMK A01 T02730158  RH  052%=      5-min Rain = 0
KSYS 200820Z 17008KT 27/16 A3004 RMK A01 T02720158  RH  052%=      5-min Rain = 0
KSYS 200825Z 17008G13KT 27/16 A3004 RMK A01 T02710158  RH  053%=      5-min Rain = 0
KSYS 200830Z 16008KT 27/16 A3004 RMK A01 T02700159  RH  053%=      5-min Rain = 0
KSYS 200835Z 17008KT 27/16 A3004 RMK A01 T02690159  RH  053%=      5-min Rain = 0
KSYS 200840Z 17007KT 27/16 A3004 RMK A01 T02680159  RH  054%=      5-min Rain = 0
KSYS 200845Z 18007KT 27/16 A3004 RMK A01 T02670159  RH  054%=      5-min Rain = 0
KSYS 200850Z 18007KT 27/16 A3004 RMK A01 T02650159  RH  055%=      5-min Rain = 0
KSYS 200855Z 18007KT 26/16 A3004 RMK A01 T02640159  RH  055%=      5-min Rain = 0
KSYS 200900Z 17007KT 26/16 A3004 RMK A01 T02630159  RH  055%=      5-min Rain = 0
KSYS 200905Z 17007KT 26/16 A3004 RMK A01 T02620159  RH  056%=      5-min Rain = 0
KSYS 200910Z 17007KT 26/16 A3004 RMK A01 T02600159  RH  056%=      5-min Rain = 0
KSYS 200915Z 17007KT 26/16 A3004 RMK A01 T02580159  RH  057%=      5-min Rain = 0
KSYS 200920Z 17007KT 26/16 A3004 RMK A01 T02570159  RH  058%=      5-min Rain = 0
KSYS 200925Z 17007KT 26/16 A3004 RMK A01 T02550159  RH  058%=      5-min Rain = 0
KSYS 200930Z 18007KT 25/16 A3004 RMK A01 T02540159  RH  058%=      5-min Rain = 0
KSYS 200935Z 18006KT 25/16 A3004 RMK A01 T02530159  RH  059%=      5-min Rain = 0
KSYS 200940Z 17007KT 25/16 A3004 RMK A01 T02510159  RH  060%=      5-min Rain = 0
KSYS 200945Z 16006KT 25/16 A3004 RMK A01 T02500159  RH  060%=      5-min Rain = 0
KSYS 200950Z 17005KT 25/16 A3004 RMK A01 T02490159  RH  060%=      5-min Rain = 0
KSYS 200955Z 17005KT 25/16 A3004 RMK A01 T02470159  RH  061%=      5-min Rain = 0
KSYS 201000Z 18005KT 25/16 A3004 RMK A01 T02460159  RH  061%=      5-min Rain = 0
KSYS 201005Z 17006KT 25/16 A3004 RMK A01 T02450159  RH  062%=      5-min Rain = 0
KSYS 201010Z 17006KT 24/16 A3004 RMK A01 T02440159  RH  062%=      5-min Rain = 0
KSYS 201015Z 17006KT 24/16 A3004 RMK A01 T02430159  RH  063%=      5-min Rain = 0
KSYS 201020Z 18006KT 24/16 A3004 RMK A01 T02420160  RH  063%=      5-min Rain = 0
KSYS 201025Z 18005KT 24/16 A3004 RMK A01 T02410160  RH  063%=      5-min Rain = 0
KSYS 201030Z 18005KT 24/16 A3005 RMK A01 T02410160  RH  064%=      5-min Rain = 0
KSYS 201035Z 18005KT 24/16 A3005 RMK A01 T02400160  RH  064%=      5-min Rain = 0
KSYS 201040Z 17006KT 24/16 A3005 RMK A01 T02390160  RH  064%=      5-min Rain = 0
KSYS 201045Z 17005KT 24/16 A3005 RMK A01 T02380160  RH  065%=      5-min Rain = 0
KSYS 201050Z 17005KT 24/16 A3005 RMK A01 T02370160  RH  065%=      5-min Rain = 0
KSYS 201055Z 16005KT 24/16 A3006 RMK A01 T02350160  RH  066%=      5-min Rain = 0
KSYS 201100Z 17005KT 23/16 A3006 RMK A01 T02330159  RH  066%=      5-min Rain = 0
KSYS 201105Z 17005KT 23/16 A3006 RMK A01 T02320160  RH  067%=      5-min Rain = 0
KSYS 201110Z 17005KT 23/16 A3006 RMK A01 T02310160  RH  067%=      5-min Rain = 0
KSYS 201115Z 17005KT 23/16 A3006 RMK A01 T02310160  RH  067%=      5-min Rain = 0
KSYS 201120Z 17005KT 23/16 A3006 RMK A01 T02310160  RH  068%=      5-min Rain = 0
KSYS 201125Z 17005KT 23/16 A3006 RMK A01 T02300160  RH  068%=      5-min Rain = 0
KSYS 201130Z 18006KT 23/16 A3006 RMK A01 T02300160  RH  068%=      5-min Rain = 0
KSYS 201135Z 18006KT 23/16 A3007 RMK A01 T02310160  RH  068%=      5-min Rain = 0
KSYS 201140Z 19006KT 23/16 A3007 RMK A01 T02310161  RH  067%=      5-min Rain = 0
KSYS 201145Z 19006KT 23/16 A3007 RMK A01 T02330161  RH  067%=      5-min Rain = 0
KSYS 201150Z 18006KT 23/16 A3007 RMK A01 T02340162  RH  067%=      5-min Rain = 0
KSYS 201155Z 18006KT 24/16 A3007 RMK A01 T02350162  RH  067%=      5-min Rain = 0
KSYS 201200Z 19006KT 24/16 A3007 RMK A01 T02350162  RH  067%=      5-min Rain = 0
KSYS 201205Z 19006KT 24/16 A3007 RMK A01 T02350162  RH  067%=      5-min Rain = 0
KSYS 201210Z 18005KT 24/16 A3007 RMK A01 T02350162  RH  067%=      5-min Rain = 0
KSYS 201215Z 17006KT 23/16 A3007 RMK A01 T02330162  RH  067%=      5-min Rain = 0
KSYS 201220Z 17005KT 23/16 A3007 RMK A01 T02310162  RH  068%=      5-min Rain = 0
KSYS 201225Z 17006KT 23/16 A3007 RMK A01 T02290162  RH  069%=      5-min Rain = 0
KSYS 201230Z 18006KT 23/16 A3007 RMK A01 T02290162  RH  069%=      5-min Rain = 0
KSYS 201235Z 17006KT 23/16 A3008 RMK A01 T02290163  RH  070%=      5-min Rain = 0
KSYS 201240Z 16006KT 23/16 A3008 RMK A01 T02300164  RH  069%=      5-min Rain = 0
KSYS 201245Z 17006KT 23/17 A3007 RMK A01 T02320165  RH  069%=      5-min Rain = 0
KSYS 201250Z 18006KT 23/17 A3007 RMK A01 T02340165  RH  069%=      5-min Rain = 0
KSYS 201255Z 17005KT 24/17 A3008 RMK A01 T02360166  RH  068%=      5-min Rain = 0
KSYS 201300Z 17005KT 24/17 A3008 RMK A01 T02390166  RH  067%=      5-min Rain = 0
KSYS 201305Z 18006KT 24/17 A3007 RMK A01 T02410167  RH  066%=      5-min Rain = 0
KSYS 201310Z 19005KT 25/17 A3007 RMK A01 T02450168  RH  065%=      5-min Rain = 0
KSYS 201315Z 18005KT 25/17 A3007 RMK A01 T02480167  RH  064%=      5-min Rain = 0
KSYS 201320Z 17004KT 25/17 A3008 RMK A01 T02520169  RH  063%=      5-min Rain = 0
KSYS 201325Z 18005KT 26/17 A3008 RMK A01 T02560169  RH  062%=      5-min Rain = 0
KSYS 201330Z 17005KT 26/17 A3008 RMK A01 T02580170  RH  061%=      5-min Rain = 0
KSYS 201335Z 17004KT 26/17 A3009 RMK A01 T02610171  RH  061%=      5-min Rain = 0
KSYS 201340Z 19005KT 26/17 A3008 RMK A01 T02640173  RH  060%=      5-min Rain = 0
KSYS 201345Z 19007KT 27/18 A3008 RMK A01 T02670175  RH  060%=      5-min Rain = 0
KSYS 201350Z 19006KT 27/18 A3009 RMK A01 T02700175  RH  059%=      5-min Rain = 0
KSYS 201355Z 20007KT 27/18 A3009 RMK A01 T02710176  RH  059%=      5-min Rain = 0
KSYS 201400Z 19007KT 27/18 A3009 RMK A01 T02730178  RH  059%=      5-min Rain = 0
KSYS 201405Z 20007KT 28/18 A3008 RMK A01 T02750179  RH  059%=      5-min Rain = 0
KSYS 201410Z 20008KT 28/18 A3009 RMK A01 T02780180  RH  058%=      5-min Rain = 0
KSYS 201415Z 20007KT 28/18 A3009 RMK A01 T02800182  RH  058%=      5-min Rain = 0
KSYS 201420Z 19007KT 28/18 A3008 RMK A01 T02830183  RH  058%=      5-min Rain = 0
KSYS 201425Z 20008KT 29/18 A3008 RMK A01 T02850184  RH  057%=      5-min Rain = 0
KSYS 201430Z 19010KT 29/18 A3008 RMK A01 T02870184  RH  056%=      5-min Rain = 0
KSYS 201435Z 19010KT 29/18 A3008 RMK A01 T02860184  RH  057%=      5-min Rain = 0
KSYS 201440Z 18010KT 29/18 A3008 RMK A01 T02880184  RH  056%=      5-min Rain = 0
KSYS 201445Z 20009KT 29/19 A3009 RMK A01 T02910185  RH  056%=      5-min Rain = 0
KSYS 201450Z 18010KT 29/19 A3009 RMK A01 T02940186  RH  055%=      5-min Rain = 0
KSYS 201455Z 18011KT 30/19 A3009 RMK A01 T02960186  RH  054%=      5-min Rain = 0
KSYS 201500Z 18009KT 30/19 A3009 RMK A01 T02990186  RH  054%=      5-min Rain = 0
KSYS 201505Z 17010G15KT 30/19 A3009 RMK A01 T03000186  RH  053%=      5-min Rain = 0
KSYS 201510Z 18011KT 30/19 A3009 RMK A01 T03010185  RH  053%=      5-min Rain = 0
KSYS 201515Z 20009KT 30/19 A3009 RMK A01 T03020186  RH  053%=      5-min Rain = 0
KSYS 201520Z 20009G14KT 30/19 A3009 RMK A01 T03040186  RH  052%=      5-min Rain = 0
KSYS 201525Z 20010KT 31/19 A3009 RMK A01 T03070186  RH  051%=      5-min Rain = 0
KSYS 201530Z 20009KT 31/19 A3009 RMK A01 T03080186  RH  051%=      5-min Rain = 0
KSYS 201535Z 19009KT 31/19 A301 RMK A01 T03100186  RH  051%=      5-min Rain = 0
KSYS 201540Z 19010KT 31/19 A3009 RMK A01 T03130186  RH  050%=      5-min Rain = 0
KSYS 201545Z 19009G15KT 31/19 A3009 RMK A01 T03140186  RH  049%=      5-min Rain = 0
KSYS 201550Z 19009KT 31/19 A3009 RMK A01 T03140185  RH  049%=      5-min Rain = 0
KSYS 201555Z 19009KT 32/19 A301 RMK A01 T03180185  RH  048%=      5-min Rain = 0
KSYS 201600Z 19008KT 32/19 A301 RMK A01 T03220185  RH  047%=      5-min Rain = 0
KSYS 201605Z 19009KT 33/18 A301 RMK A01 T03250184  RH  046%=      5-min Rain = 0
KSYS 201610Z 19009KT 33/18 A301 RMK A01 T03250183  RH  045%=      5-min Rain = 0
KSYS 201615Z 19008KT 33/18 A301 RMK A01 T03280183  RH  045%=      5-min Rain = 0
KSYS 201620Z 20010KT 33/18 A301 RMK A01 T03290182  RH  044%=      5-min Rain = 0
KSYS 201625Z 20008KT 33/18 A301 RMK A01 T03290184  RH  045%=      5-min Rain = 0
KSYS 201630Z 17009G14KT 33/18 A301 RMK A01 T03300182  RH  044%=      5-min Rain = 0
KSYS 201635Z 17010KT 33/18 A301 RMK A01 T03320179  RH  042%=      5-min Rain = 0
KSYS 201640Z 18007KT 33/18 A301 RMK A01 T03340183  RH  043%=      5-min Rain = 0
KSYS 201645Z 15010KT 34/18 A301 RMK A01 T03370179  RH  041%=      5-min Rain = 0
KSYS 201650Z 19008G13KT 34/18 A301 RMK A01 T03400181  RH  041%=      5-min Rain = 0
KSYS 201655Z 16010KT 34/18 A301 RMK A01 T03400180  RH  041%=      5-min Rain = 0
KSYS 201700Z 17008G13KT 34/18 A301 RMK A01 T03420175  RH  039%=      5-min Rain = 0
KSYS 201705Z 17006G11KT 34/18 A301 RMK A01 T03420178  RH  040%=      5-min Rain = 0
KSYS 201710Z 18008KT 34/18 A301 RMK A01 T03440178  RH  039%=      5-min Rain = 0
KSYS 201715Z 17008G13KT 35/18 A301 RMK A01 T03450177  RH  039%=      5-min Rain = 0
KSYS 201720Z 17008G13KT 35/17 A301 RMK A01 T03470171  RH  037%=      5-min Rain = 0
KSYS 201725Z 16008G13KT 35/17 A301 RMK A01 T03490168  RH  036%=      5-min Rain = 0
KSYS 201730Z 13006KT 35/17 A301 RMK A01 T03520166  RH  035%=      5-min Rain = 0
KSYS 201735Z 18009KT 35/16 A3009 RMK A01 T03540164  RH  034%=      5-min Rain = 0
KSYS 201740Z 16004G9KT 35/16 A3009 RMK A01 T03490163  RH  035%=      5-min Rain = 0
KSYS 201745Z 16006KT 35/17 A3009 RMK A01 T03520166  RH  035%=      5-min Rain = 0
KSYS 201750Z 19008G15KT 35/17 A3009 RMK A01 T03530171  RH  036%=      5-min Rain = 0
KSYS 201755Z 16006G11KT 35/16 A3009 RMK A01 T03540163  RH  034%=      5-min Rain = 0
KSYS 201800Z 16011KT 36/15 A3009 RMK A01 T03570154  RH  031%=      5-min Rain = 0
KSYS 201805Z 16007G13KT 36/16 A3009 RMK A01 T03560158  RH  032%=      5-min Rain = 0
KSYS 201810Z 14006G13KT 36/16 A3009 RMK A01 T03550160  RH  033%=      5-min Rain = 0
KSYS 201815Z 17009G14KT 36/16 A3009 RMK A01 T03560160  RH  033%=      5-min Rain = 0
KSYS 201820Z 19007KT 36/16 A3009 RMK A01 T03580161  RH  033%=      5-min Rain = 0
KSYS 201825Z 15005KT 36/16 A3009 RMK A01 T03580161  RH  033%=      5-min Rain = 0
KSYS 201830Z 18007G12KT 36/16 A3008 RMK A01 T03600156  RH  031%=      5-min Rain = 0
KSYS 201835Z 19004G9KT 36/16 A3008 RMK A01 T03580158  RH  032%=      5-min Rain = 0
KSYS 201840Z 17007G12KT 36/16 A3008 RMK A01 T03600161  RH  032%=      5-min Rain = 0
KSYS 201845Z 17008KT 36/16 A3008 RMK A01 T03610159  RH  032%=      5-min Rain = 0
KSYS 201850Z 13007KT 37/15 A3008 RMK A01 T03660154  RH  030%=      5-min Rain = 0
KSYS 201855Z 17008G14KT 37/15 A3008 RMK A01 T03670154  RH  030%=      5-min Rain = 0
KSYS 201900Z 18008G14KT 37/16 A3007 RMK A01 T03650157  RH  031%=      5-min Rain = 0
KSYS 201905Z 21006KT 37/16 A3007 RMK A01 T03660158  RH  031%=      5-min Rain = 0
KSYS 201910Z 16009G15KT 37/16 A3007 RMK A01 T03670160  RH  031%=      5-min Rain = 0
KSYS 201915Z 19005G11KT 37/16 A3007 RMK A01 T03660158  RH  031%=      5-min Rain = 0
KSYS 201920Z 16009G15KT 37/15 A3007 RMK A01 T03650154  RH  030%=      5-min Rain = 0
KSYS 201925Z 14008KT 37/15 A3007 RMK A01 T03680150  RH  029%=      5-min Rain = 0
KSYS 201930Z 16007G12KT 37/15 A3007 RMK A01 T03720151  RH  028%=      5-min Rain = 0
KSYS 201935Z 14004G13KT 37/16 A3006 RMK A01 T03710155  RH  029%=      5-min Rain = 0
KSYS 201940Z 14008G14KT 37/16 A3006 RMK A01 T03730155  RH  029%=      5-min Rain = 0
KSYS 201945Z 14010G15KT 37/15 A3006 RMK A01 T03670153  RH  029%=      5-min Rain = 0
KSYS 201950Z 15008G13KT 37/15 A3006 RMK A01 T03670150  RH  029%=      5-min Rain = 0
KSYS 201955Z 14007G12KT 38/15 A3006 RMK A01 T03750152  RH  028%=      5-min Rain = 0
KSYS 202000Z 14004G9KT 37/15 A3006 RMK A01 T03730152  RH  028%=      5-min Rain = 0
KSYS 202005Z 11003G8KT 36/15 A3005 RMK A01 T03640151  RH  030%=      5-min Rain = 0
KSYS 202010Z 14009G15KT 37/15 A3005 RMK A01 T03660150  RH  029%=      5-min Rain = 0
KSYS 202015Z 14007G14KT 37/15 A3005 RMK A01 T03720151  RH  028%=      5-min Rain = 0
KSYS 202020Z 16003KT 37/15 A3005 RMK A01 T03680150  RH  029%=      5-min Rain = 0
KSYS 202025Z 18005G11KT 37/15 A3005 RMK A01 T03650153  RH  030%=      5-min Rain = 0
KSYS 202030Z 17011G16KT 36/15 A3004 RMK A01 T03610149  RH  030%=      5-min Rain = 0
KSYS 202035Z 13008G15KT 36/15 A3004 RMK A01 T03590147  RH  030%=      5-min Rain = 0
KSYS 202040Z 13009G14KT 36/15 A3004 RMK A01 T03610146  RH  029%=      5-min Rain = 0
KSYS 202045Z 13009G15KT 37/14 A3004 RMK A01 T03700140  RH  027%=      5-min Rain = 0
KSYS 202050Z 14007G12KT 38/14 A3004 RMK A01 T03750140  RH  026%=      5-min Rain = 0
KSYS 202055Z 18004KT 38/15 A3004 RMK A01 T03750146  RH  027%=      5-min Rain = 0
KSYS 202100Z 14009KT 38/15 A3003 RMK A01 T03780149  RH  027%=      5-min Rain = 0
KSYS 202105Z 16007G12KT 38/15 A3003 RMK A01 T03800147  RH  026%=      5-min Rain = 0
KSYS 202110Z 14005G13KT 38/15 A3003 RMK A01 T03790149  RH  027%=      5-min Rain = 0
KSYS 202115Z 16010G17KT 38/15 A3003 RMK A01 T03780151  RH  027%=      5-min Rain = 0
KSYS 202120Z 15012G19KT 38/15 A3002 RMK A01 T03760152  RH  028%=      5-min Rain = 0
KSYS 202125Z 15006KT 38/15 A3002 RMK A01 T03760150  RH  027%=      5-min Rain = 0
KSYS 202130Z 14005G10KT 38/14 A3002 RMK A01 T03750144  RH  026%=      5-min Rain = 0
KSYS 202135Z 16006KT 38/14 A3002 RMK A01 T03760139  RH  025%=      5-min Rain = 0
KSYS 202140Z 12011KT 38/13 A3002 RMK A01 T03780132  RH  024%=      5-min Rain = 0
KSYS 202145Z 12011G18KT 38/14 A3002 RMK A01 T03770136  RH  025%=      5-min Rain = 0
KSYS 202150Z 13007KT 37/14 A3002 RMK A01 T03720138  RH  026%=      5-min Rain = 0
KSYS 202155Z 15006G13KT 37/14 A3002 RMK A01 T03680138  RH  026%=      5-min Rain = 0
KSYS 202200Z 15008G14KT 37/14 A3002 RMK A01 T03730135  RH  025%=      5-min Rain = 0
KSYS 202205Z 15010G16KT 38/14 A3001 RMK A01 T03750135  RH  025%=      5-min Rain = 0
KSYS 202210Z 16007KT 38/14 A3001 RMK A01 T03750140  RH  026%=      5-min Rain = 0
KSYS 202215Z 16008G15KT 38/14 A3001 RMK A01 T03750136  RH  025%=      5-min Rain = 0
KSYS 202220Z 15009G14KT 38/13 A3001 RMK A01 T03760130  RH  024%=      5-min Rain = 0
KSYS 202225Z 12006G11KT 38/13 A3001 RMK A01 T03770134  RH  024%=      5-min Rain = 0
KSYS 202230Z 13009G16KT 38/13 A3001 RMK A01 T03770133  RH  024%=      5-min Rain = 0
KSYS 202235Z 13012KT 38/14 A3001 RMK A01 T03770138  RH  025%=      5-min Rain = 0
KSYS 202240Z 13010KT 38/13 A3001 RMK A01 T03760132  RH  024%=      5-min Rain = 0
KSYS 202245Z 16009KT 37/13 A3001 RMK A01 T03730127  RH  024%=      5-min Rain = 0
KSYS 202250Z 15007KT 37/13 A3001 RMK A01 T03700132  RH  025%=      5-min Rain = 0
KSYS 202255Z 12010KT 37/13 A3001 RMK A01 T03650134  RH  026%=      5-min Rain = 0
KSYS 202300Z 13008KT 37/13 A3001 RMK A01 T03680133  RH  026%=      5-min Rain = 0
KSYS 202305Z 14008KT 37/14 A3001 RMK A01 T03700136  RH  026%=      5-min Rain = 0
KSYS 202310Z 13009KT 37/13 A30 RMK A01 T03730133  RH  025%=      5-min Rain = 0
KSYS 202315Z 13012KT 37/13 A30 RMK A01 T03730132  RH  025%=      5-min Rain = 0
KSYS 202320Z 14009G14KT 37/13 A30 RMK A01 T03700127  RH  024%=      5-min Rain = 0
KSYS 202325Z 14013KT 37/13 A30 RMK A01 T03690129  RH  025%=      5-min Rain = 0
KSYS 202330Z 13010KT 37/13 A30 RMK A01 T03660130  RH  025%=      5-min Rain = 0
KSYS 202335Z 12011KT 37/13 A30 RMK A01 T03650132  RH  026%=      5-min Rain = 0
KSYS 202340Z 14010KT 36/13 A30 RMK A01 T03640133  RH  026%=      5-min Rain = 0
KSYS 202345Z 14009KT 36/14 A30 RMK A01 T03630137  RH  027%=      5-min Rain = 0
KSYS 202350Z 13011KT 36/13 A30 RMK A01 T03610131  RH  026%=      5-min Rain = 0
KSYS 202355Z 13010KT 36/13 A30 RMK A01 T03610127  RH  026%=      5-min Rain = 0
KSYS 210000Z 14010KT 36/13 A30 RMK A01 T03610131  RH  026%=      5-min Rain = 0
KSYS 210005Z 14011KT 36/14 A30 RMK A01 T03580137  RH  028%=      5-min Rain = 0
KSYS 210010Z 15011KT 36/14 A30 RMK A01 T03560138  RH  028%=      5-min Rain = 0
KSYS 210015Z 15010KT 35/14 A30 RMK A01 T03540138  RH  029%=      5-min Rain = 0
KSYS 210020Z 13009KT 35/14 A30 RMK A01 T03520135  RH  028%=      5-min Rain = 0
KSYS 210025Z 13009KT 35/13 A30 RMK A01 T03510131  RH  028%=      5-min Rain = 0
KSYS 210030Z 13010KT 35/13 A30 RMK A01 T03500130  RH  028%=      5-min Rain = 0
KSYS 210035Z 13011KT 35/14 A30 RMK A01 T03470135  RH  029%=      5-min Rain = 0
KSYS 210040Z 13010KT 35/14 A30 RMK A01 T03450137  RH  030%=      5-min Rain = 0
KSYS 210045Z 14010KT 34/14 A3001 RMK A01 T03430135  RH  030%=      5-min Rain = 0
KSYS 210050Z 14011KT 34/13 A3001 RMK A01 T03410133  RH  030%=      5-min Rain = 0
KSYS 210055Z 14010KT 34/13 A3001 RMK A01 T03400130  RH  029%=      5-min Rain = 0
KSYS 210100Z 14008KT 34/13 A3001 RMK A01 T03380130  RH  030%=      5-min Rain = 0
KSYS 210105Z 13008KT 34/13 A3001 RMK A01 T03350130  RH  030%=      5-min Rain = 0
KSYS 210110Z 13009KT 33/13 A3001 RMK A01 T03320131  RH  031%=      5-min Rain = 0
KSYS 210115Z 14008KT 33/13 A3001 RMK A01 T03300133  RH  032%=      5-min Rain = 0
KSYS 210120Z 13008KT 33/13 A3001 RMK A01 T03270133  RH  032%=      5-min Rain = 0
KSYS 210125Z 13008KT 32/13 A3001 RMK A01 T03240133  RH  033%=      5-min Rain = 0
KSYS 210130Z 13008KT 32/13 A3002 RMK A01 T03220133  RH  033%=      5-min Rain = 0
KSYS 210135Z 14008KT 32/13 A3002 RMK A01 T03200133  RH  033%=      5-min Rain = 0
KSYS 210140Z 13008KT 32/13 A3002 RMK A01 T03190134  RH  034%=      5-min Rain = 0
KSYS 210145Z 13008KT 32/13 A3002 RMK A01 T03160134  RH  034%=      5-min Rain = 0
KSYS 210150Z 13008KT 32/13 A3002 RMK A01 T03150134  RH  035%=      5-min Rain = 0
KSYS 210155Z 13007KT 31/14 A3002 RMK A01 T03130135  RH  035%=      5-min Rain = 0
KSYS 210200Z 13008KT 31/14 A3002 RMK A01 T03120136  RH  036%=      5-min Rain = 0
KSYS 210205Z 13008KT 31/14 A3002 RMK A01 T03100137  RH  036%=      5-min Rain = 0
KSYS 210210Z 13008KT 31/14 A3003 RMK A01 T03090137  RH  037%=      5-min Rain = 0
KSYS 210215Z 13007KT 31/14 A3003 RMK A01 T03080138  RH  037%=      5-min Rain = 0
KSYS 210220Z 13008KT 31/14 A3003 RMK A01 T03060138  RH  037%=      5-min Rain = 0
KSYS 210225Z 13008KT 31/14 A3003 RMK A01 T03050138  RH  038%=      5-min Rain = 0
KSYS 210230Z 13008KT 30/14 A3003 RMK A01 T03030138  RH  038%=      5-min Rain = 0
KSYS 210235Z 13008KT 30/14 A3003 RMK A01 T03010139  RH  039%=      5-min Rain = 0
KSYS 210240Z 13008KT 30/14 A3003 RMK A01 T02980140  RH  040%=      5-min Rain = 0
KSYS 210245Z 13008KT 30/14 A3004 RMK A01 T02960140  RH  040%=      5-min Rain = 0
KSYS 210250Z 13008KT 30/14 A3004 RMK A01 T02950139  RH  040%=      5-min Rain = 0
KSYS 210255Z 13008KT 30/14 A3004 RMK A01 T02950140  RH  040%=      5-min Rain = 0
KSYS 210300Z 12008KT 29/14 A3004 RMK A01 T02930140  RH  041%=      5-min Rain = 0
KSYS 210305Z 13008KT 29/14 A3004 RMK A01 T02920141  RH  041%=      5-min Rain = 0
KSYS 210310Z 13008KT 29/14 A3004 RMK A01 T02910141  RH  042%=      5-min Rain = 0
KSYS 210315Z 13008KT 29/14 A3004 RMK A01 T02910142  RH  042%=      5-min Rain = 0
KSYS 210320Z 13008KT 29/14 A3004 RMK A01 T02900142  RH  042%=      5-min Rain = 0
KSYS 210325Z 13008KT 29/14 A3004 RMK A01 T02900142  RH  042%=      5-min Rain = 0
KSYS 210330Z 13008KT 29/14 A3005 RMK A01 T02890142  RH  042%=      5-min Rain = 0
KSYS 210335Z 13008KT 29/14 A3004 RMK A01 T02880141  RH  042%=      5-min Rain = 0
KSYS 210340Z 13008KT 29/14 A3004 RMK A01 T02880141  RH  042%=      5-min Rain = 0
KSYS 210345Z 13008KT 29/14 A3004 RMK A01 T02880140  RH  042%=      5-min Rain = 0
KSYS 210350Z 13008KT 29/14 A3004 RMK A01 T02880140  RH  042%=      5-min Rain = 0
KSYS 210355Z 13007KT 29/14 A3004 RMK A01 T02870140  RH  042%=      5-min Rain = 0
KSYS 210400Z 13007KT 29/14 A3004 RMK A01 T02860141  RH  043%=      5-min Rain = 0
KSYS 210405Z 13007KT 29/14 A3005 RMK A01 T02850141  RH  043%=      5-min Rain = 0
KSYS 210410Z 13007KT 29/14 A3005 RMK A01 T02850140  RH  043%=      5-min Rain = 0
KSYS 210415Z 13008KT 28/14 A3005 RMK A01 T02840140  RH  043%=      5-min Rain = 0
KSYS 210420Z 13008KT 28/14 A3005 RMK A01 T02840140  RH  043%=      5-min Rain = 0
KSYS 210425Z 13008KT 28/14 A3005 RMK A01 T02830140  RH  043%=      5-min Rain = 0
KSYS 210430Z 13008KT 28/14 A3005 RMK A01 T02830140  RH  043%=      5-min Rain = 0
KSYS 210435Z 13008KT 28/14 A3005 RMK A01 T02810141  RH  044%=      5-min Rain = 0
KSYS 210440Z 12008KT 28/14 A3005 RMK A01 T02790141  RH  044%=      5-min Rain = 0
KSYS 210445Z 12008KT 28/14 A3005 RMK A01 T02780140  RH  045%=      5-min Rain = 0
KSYS 210450Z 12008KT 28/14 A3005 RMK A01 T02780140  RH  044%=      5-min Rain = 0
KSYS 210455Z 12008KT 28/14 A3005 RMK A01 T02780139  RH  044%=      5-min Rain = 0

Page generated in 0.0094 seconds.